Time;durP1;ratioP1;P1;durP2;ratioP2;P2;SDS_P1;SDS_P2;PMS_P1;PMS_P2;Temp;Humidity;BMP_temperature;BMP_pressure;BME280_temperature;BME280_humidity;BME280_pressure;Samples;Min_cycle;Max_cycle;Signal;HPM_P1;HPM_P2
2023/01/14 00:01:23;;;;;;;16.92;2.50;;;;;;;6.14;100.00;101210.22;5070391;28;20048;-53
2023/01/14 00:03:55;;;;;;;14.23;3.13;;;;;;;6.18;100.00;101217.00;5074783;28;20072;-50
2023/01/14 00:06:25;;;;;;;14.90;2.35;;;;;;;6.14;100.00;101225.88;5074566;28;20044;-52
2023/01/14 00:08:54;;;;;;;16.25;2.53;;;;;;;6.14;100.00;101220.66;5074925;28;20040;-51
2023/01/14 00:11:45;;;;;;;17.05;2.42;;;;;;;6.14;100.00;101219.81;5074881;28;20131;-53
2023/01/14 00:14:13;;;;;;;13.80;2.60;;;;;;;6.14;100.00;101230.25;5074786;28;20080;-51
2023/01/14 00:16:42;;;;;;;14.05;2.95;;;;;;;6.11;100.00;101238.19;5070040;28;20539;-52
2023/01/14 00:19:12;;;;;;;22.73;3.03;;;;;;;6.05;100.00;101254.97;5071491;28;20123;-51
2023/01/14 00:21:43;;;;;;;15.25;2.42;;;;;;;6.03;100.00;101246.34;5094491;28;20487;-52
2023/01/14 00:24:11;;;;;;;15.95;2.35;;;;;;;6.04;100.00;101250.66;5093620;28;20423;-52
2023/01/14 00:26:40;;;;;;;14.48;2.50;;;;;;;5.99;100.00;101258.69;5092374;28;20055;-52
2023/01/14 00:29:15;;;;;;;15.85;2.88;;;;;;;5.99;100.00;101258.69;5091739;28;20277;-54
2023/01/14 00:31:44;;;;;;;18.98;3.78;;;;;;;5.94;100.00;101252.75;5093071;28;20143;-53
2023/01/14 00:34:15;;;;;;;11.73;2.60;;;;;;;5.90;100.00;101257.25;5091034;28;20550;-53
2023/01/14 00:36:44;;;;;;;15.23;2.40;;;;;;;5.93;100.00;101264.97;5091988;28;20058;-53
2023/01/14 00:39:13;;;;;;;14.32;4.05;;;;;;;5.94;100.00;101260.56;5091995;28;20058;-54
2023/01/14 00:41:44;;;;;;;14.38;2.63;;;;;;;5.85;100.00;101268.75;5090359;28;20044;-54
2023/01/14 00:44:12;;;;;;;16.70;2.30;;;;;;;5.85;100.00;101260.94;5094579;28;20062;-53
2023/01/14 00:46:42;;;;;;;18.27;2.70;;;;;;;5.81;100.00;101269.78;5094335;28;20109;-53
2023/01/14 00:49:17;;;;;;;17.17;2.80;;;;;;;5.83;100.00;101271.44;5094200;28;20048;-53
2023/01/14 00:51:45;;;;;;;17.08;2.90;;;;;;;5.84;100.00;101269.69;5070716;28;20033;-53
2023/01/14 00:54:14;;;;;;;16.77;2.95;;;;;;;5.85;100.00;101272.25;5072283;28;20044;-54
2023/01/14 00:56:42;;;;;;;13.57;2.75;;;;;;;5.87;100.00;101273.00;5087335;28;20033;-53
2023/01/14 00:59:16;;;;;;;16.65;2.80;;;;;;;5.86;100.00;101263.50;5072446;28;20131;-53
2023/01/14 01:01:45;;;;;;;16.40;3.00;;;;;;;5.84;100.00;101267.91;5067797;28;20132;-53
2023/01/14 01:04:13;;;;;;;15.90;2.97;;;;;;;5.88;100.00;101260.84;5064741;28;20391;-53
2023/01/14 01:06:43;;;;;;;15.55;2.83;;;;;;;5.87;100.00;101261.72;5058021;28;20051;-52
2023/01/14 01:09:11;;;;;;;17.02;3.50;;;;;;;5.85;100.00;101276.59;5063909;28;20045;-53
2023/01/14 01:11:39;;;;;;;15.73;2.75;;;;;;;5.83;100.00;101273.22;5085236;28;20495;-53
2023/01/14 01:14:08;;;;;;;17.05;2.50;;;;;;;5.81;100.00;101278.50;5075194;28;20398;-52
2023/01/14 01:16:36;;;;;;;20.63;3.83;;;;;;;5.84;100.00;101274.91;5073421;28;20044;-53
2023/01/14 01:19:04;;;;;;;15.80;2.83;;;;;;;5.85;100.00;101284.41;5072231;28;20126;-53
2023/01/14 01:21:32;;;;;;;16.52;2.72;;;;;;;5.84;100.00;101285.34;5073283;28;20078;-51
2023/01/14 01:24:01;;;;;;;16.95;2.67;;;;;;;5.88;100.00;101282.56;5072044;28;20056;-51
2023/01/14 01:26:30;;;;;;;18.67;3.10;;;;;;;5.88;100.00;101287.78;5069411;28;20056;-53
2023/01/14 01:28:58;;;;;;;16.13;3.05;;;;;;;5.87;100.00;101286.06;5071963;28;20119;-53
2023/01/14 01:31:28;;;;;;;20.92;3.80;;;;;;;5.87;100.00;101286.06;5072992;28;20086;-51
2023/01/14 01:33:57;;;;;;;17.20;2.92;;;;;;;5.86;100.00;101284.38;5068898;28;20052;-54
2023/01/14 01:36:27;;;;;;;15.40;3.10;;;;;;;5.83;100.00;101284.47;5070406;28;20075;-50
2023/01/14 01:38:55;;;;;;;14.65;2.50;;;;;;;5.85;100.00;101281.81;5073264;28;20076;-51
2023/01/14 01:41:27;;;;;;;17.05;3.20;;;;;;;5.85;100.00;101277.47;5073009;28;20451;-53
2023/01/14 01:44:00;;;;;;;15.75;2.90;;;;;;;5.84;100.00;101277.53;5073393;28;20056;-53
2023/01/14 01:46:29;;;;;;;16.50;2.50;;;;;;;5.85;100.00;101282.69;5067768;28;20048;-53
2023/01/14 01:49:01;;;;;;;19.60;2.95;;;;;;;5.82;100.00;101284.53;5069739;28;20411;-53
2023/01/14 01:51:34;;;;;;;20.83;3.35;;;;;;;5.76;100.00;101283.88;5072908;28;20052;-53
2023/01/14 01:54:03;;;;;;;14.07;2.97;;;;;;;5.75;100.00;101290.00;5072913;28;20518;-51
2023/01/14 01:56:35;;;;;;;18.98;3.28;;;;;;;5.81;100.00;101291.53;5072825;28;20048;-53
2023/01/14 01:59:09;;;;;;;16.13;2.67;;;;;;;5.75;100.00;101287.41;5072773;28;20051;-53
2023/01/14 02:01:39;;;;;;;16.58;2.60;;;;;;;5.72;100.00;101294.50;5066251;28;20060;-54
2023/01/14 02:04:08;;;;;;;20.20;3.92;;;;;;;5.63;100.00;101297.44;5070865;28;20080;-52
2023/01/14 02:06:36;;;;;;;14.50;2.60;;;;;;;5.66;100.00;101285.13;5072797;28;20119;-53
2023/01/14 02:09:05;;;;;;;16.45;3.25;;;;;;;5.67;100.00;101289.47;5069875;28;20059;-53
2023/01/14 02:11:53;;;;;;;13.63;2.22;;;;;;;5.62;100.00;101280.06;5069184;28;20854;-53
2023/01/14 02:14:36;;;;;;;18.42;2.72;;;;;;;5.54;100.00;101283.81;5072582;28;20052;-51
2023/01/14 02:17:12;;;;;;;18.83;2.88;;;;;;;5.48;100.00;101276.25;5072716;28;20066;-49
2023/01/14 02:20:08;;;;;;;17.13;2.38;;;;;;;5.47;100.00;101292.78;5072301;28;20056;-53
2023/01/14 02:23:09;;;;;;;14.55;2.70;;;;;;;5.46;100.00;101291.09;5072987;28;20434;-60
2023/01/14 02:26:03;;;;;;;15.80;3.08;;;;;;;5.42;100.00;101279.06;5039788;28;20412;-60
2023/01/14 02:28:39;;;;;;;21.48;3.17;;;;;;;5.39;100.00;101273.97;5068602;28;20060;-53
2023/01/14 02:31:13;;;;;;;19.17;3.67;;;;;;;5.38;100.00;101269.66;5070352;28;20106;-52
2023/01/14 02:33:47;;;;;;;18.13;3.35;;;;;;;5.32;100.00;101262.06;5072363;28;20110;-53
2023/01/14 02:36:25;;;;;;;18.95;3.17;;;;;;;5.29;100.00;101243.91;5070990;28;20057;-52
2023/01/14 02:39:02;;;;;;;15.57;3.22;;;;;;;5.34;100.00;101244.59;5071315;28;20139;-54
2023/01/14 02:44:29;;;;;;;13.75;3.20;;;;;;;5.28;100.00;101234.41;5071633;28;20139;-54
2023/01/14 02:47:03;;;;;;;21.13;3.72;;;;;;;5.20;100.00;101226.84;5066545;28;20075;-53
2023/01/14 02:49:34;;;;;;;19.08;3.35;;;;;;;5.16;100.00;101213.06;5069207;28;20053;-52
2023/01/14 02:52:05;;;;;;;17.33;3.63;;;;;;;5.11;100.00;101209.75;5072338;28;20033;-52
2023/01/14 02:54:33;;;;;;;23.55;3.28;;;;;;;5.11;100.00;101211.53;5072141;28;20052;-52
2023/01/14 02:57:08;;;;;;;21.70;4.10;;;;;;;5.08;100.00;101210.75;5072186;28;20083;-52
2023/01/14 02:59:49;;;;;;;17.30;3.53;;;;;;;5.10;100.00;101209.81;5072394;28;20070;-49
2023/01/14 03:02:42;;;;;;;20.45;4.03;;;;;;;5.10;100.00;101215.03;5072002;28;20082;-48
2023/01/14 03:05:33;;;;;;;22.08;3.80;;;;;;;5.07;100.00;101209.03;5071831;28;20087;-53
2023/01/14 03:08:17;;;;;;;17.52;3.55;;;;;;;5.05;100.00;101207.38;5070951;28;20514;-49
2023/01/14 03:10:50;;;;;;;20.58;3.70;;;;;;;5.06;100.00;101209.09;5069665;28;20048;-51
2023/01/14 03:13:23;;;;;;;21.00;3.50;;;;;;;4.99;100.00;101207.59;5072474;28;20080;-60
2023/01/14 03:15:57;;;;;;;26.17;4.25;;;;;;;4.97;100.00;101209.41;5075504;28;20040;-60
2023/01/14 03:18:33;;;;;;;21.98;3.53;;;;;;;4.91;100.00;101208.72;5076690;28;20056;-60
2023/01/14 03:21:05;;;;;;;24.98;3.55;;;;;;;4.88;100.00;101201.03;5076047;28;20133;-60
2023/01/14 03:23:39;;;;;;;18.35;3.92;;;;;;;4.84;100.00;101204.66;5075901;28;20127;-60
2023/01/14 03:26:10;;;;;;;30.27;4.05;;;;;;;4.86;100.00;101197.59;5076150;28;20185;-60
2023/01/14 03:28:46;;;;;;;25.40;4.03;;;;;;;4.81;100.00;101196.06;5076089;28;20048;-60
2023/01/14 03:31:21;;;;;;;25.00;4.55;;;;;;;4.76;100.00;101201.47;5074737;28;20483;-60
2023/01/14 03:33:55;;;;;;;19.50;4.03;;;;;;;4.81;100.00;101199.53;5074720;28;20037;-60
2023/01/14 03:36:26;;;;;;;31.02;4.57;;;;;;;4.77;100.00;101213.56;5074204;28;20093;-60
2023/01/14 03:38:59;;;;;;;24.20;4.35;;;;;;;4.70;100.00;101206.88;5075637;28;20048;-60
2023/01/14 03:44:21;;;;;;;24.42;4.53;;;;;;;4.67;100.00;101196.56;5075693;28;20037;-60
2023/01/14 03:46:50;;;;;;;20.10;4.20;;;;;;;4.63;100.00;101184.56;5075190;28;20427;-60
2023/01/14 03:49:22;;;;;;;22.60;3.65;;;;;;;4.70;100.00;101180.81;5073428;28;20060;-60
2023/01/14 03:51:58;;;;;;;26.08;4.05;;;;;;;4.67;100.00;101171.34;5073878;28;20048;-60
2023/01/14 03:54:32;;;;;;;23.02;3.72;;;;;;;4.65;100.00;101161.88;5075341;28;20037;-60
2023/01/14 03:57:08;;;;;;;24.83;4.15;;;;;;;4.63;100.00;101166.31;5075210;28;20060;-60
2023/01/14 03:59:44;;;;;;;24.58;3.42;;;;;;;4.66;100.00;101163.59;5075266;28;20499;-60
2023/01/14 04:02:13;;;;;;;25.75;4.45;;;;;;;4.63;100.00;101163.72;5075323;28;20040;-60
2023/01/14 04:04:46;;;;;;;24.17;4.13;;;;;;;4.72;100.00;101153.81;5074972;28;20127;-60
2023/01/14 04:07:14;;;;;;;27.13;3.83;;;;;;;4.63;100.00;101155.88;5074104;28;20055;-59
2023/01/14 04:09:42;;;;;;;26.08;3.72;;;;;;;4.60;100.00;101162.06;5073045;28;20550;-59
2023/01/14 04:12:11;;;;;;;21.40;2.97;;;;;;;4.59;100.00;101151.69;5075001;28;20124;-51
2023/01/14 04:17:24;;;;;;;24.05;4.18;;;;;;;4.57;100.00;101141.34;5068341;28;20122;-53
2023/01/14 04:19:54;;;;;;;25.27;3.72;;;;;;;4.59;100.00;101142.09;5073396;28;20098;-53
2023/01/14 04:22:22;;;;;;;30.60;4.85;;;;;;;4.53;100.00;101137.97;5074431;28;20131;-52
2023/01/14 04:24:50;;;;;;;27.17;4.47;;;;;;;4.51;100.00;101129.38;5074312;28;20087;-52
2023/01/14 04:27:18;;;;;;;19.95;3.70;;;;;;;4.52;100.00;101125.84;5073229;28;20048;-51
2023/01/14 04:29:47;;;;;;;26.23;4.50;;;;;;;4.52;100.00;101125.00;5074101;28;20056;-60
2023/01/14 04:32:15;;;;;;;22.33;4.45;;;;;;;4.52;100.00;101119.78;5074146;28;20501;-51
2023/01/14 04:34:43;;;;;;;23.77;3.80;;;;;;;4.50;100.00;101117.25;5074513;28;20044;-58
2023/01/14 04:37:13;;;;;;;25.65;3.63;;;;;;;4.48;100.00;101113.84;5074834;28;20102;-59
2023/01/14 04:39:41;;;;;;;26.73;3.97;;;;;;;4.55;100.00;101114.47;5074746;28;20403;-60
2023/01/14 04:42:30;;;;;;;17.40;3.70;;;;;;;4.56;100.00;101108.34;5074762;28;20055;-60
2023/01/14 04:45:00;;;;;;;28.58;4.53;;;;;;;4.55;100.00;101098.84;5074474;28;20056;-60
2023/01/14 04:47:29;;;;;;;25.00;4.00;;;;;;;4.59;100.00;101094.38;5074367;28;20070;-56
2023/01/14 04:49:57;;;;;;;26.20;3.78;;;;;;;4.57;100.00;101090.06;5074529;28;20068;-60
2023/01/14 04:52:27;;;;;;;29.52;4.80;;;;;;;4.57;100.00;101087.47;5074623;28;20545;-60
2023/01/14 04:54:55;;;;;;;28.73;4.18;;;;;;;4.57;100.00;101081.41;5073606;28;20056;-60
2023/01/14 04:57:23;;;;;;;26.58;3.85;;;;;;;4.60;100.00;101083.06;5072520;28;20057;-60
2023/01/14 04:59:51;;;;;;;21.00;4.32;;;;;;;4.60;100.00;101077.84;5073555;28;20114;-60
2023/01/14 05:02:19;;;;;;;25.25;3.90;;;;;;;4.60;100.00;101078.69;5074106;28;20106;-60
2023/01/14 05:04:47;;;;;;;21.05;3.05;;;;;;;4.63;100.00;101067.31;5074071;28;20049;-60
2023/01/14 05:07:15;;;;;;;28.73;4.22;;;;;;;4.66;100.00;101070.66;5074147;28;20055;-60
2023/01/14 05:09:45;;;;;;;23.42;3.95;;;;;;;4.65;100.00;101060.28;5074070;28;20488;-60
2023/01/14 05:12:13;;;;;;;22.75;4.15;;;;;;;4.63;100.00;101056.88;5072550;28;20048;-60
2023/01/14 05:14:41;;;;;;;22.63;3.25;;;;;;;4.68;100.00;101049.75;5071919;28;20041;-60
2023/01/14 05:17:10;;;;;;;19.42;4.03;;;;;;;4.71;100.00;101041.81;5073878;28;20076;-60
2023/01/14 05:19:38;;;;;;;23.02;4.07;;;;;;;4.69;100.00;101028.84;5073957;28;20040;-60
2023/01/14 05:22:06;;;;;;;21.98;3.70;;;;;;;4.69;100.00;101022.78;5072909;28;20052;-60
2023/01/14 05:24:37;;;;;;;25.58;3.40;;;;;;;4.72;100.00;101022.69;5071642;28;20098;-60
2023/01/14 05:27:06;;;;;;;20.60;3.75;;;;;;;4.71;100.00;101010.56;5073320;28;20048;-60
2023/01/14 05:29:36;;;;;;;23.00;2.70;;;;;;;4.71;100.00;101014.00;5073519;28;20132;-60
2023/01/14 05:32:04;;;;;;;23.25;4.75;;;;;;;4.71;100.00;101000.97;5073856;28;20056;-60
2023/01/14 05:34:32;;;;;;;20.45;3.03;;;;;;;4.73;100.00;100999.16;5073774;28;20124;-60
2023/01/14 05:37:00;;;;;;;26.15;4.40;;;;;;;4.75;100.00;101001.72;5072703;28;20040;-60
2023/01/14 05:39:28;;;;;;;23.42;3.90;;;;;;;4.77;100.00;101012.91;5071880;28;20041;-60
2023/01/14 05:47:29;;;;;;;23.63;3.45;;;;;;;4.85;100.00;100977.00;5071442;28;20045;-60
2023/01/14 05:49:57;;;;;;;28.83;3.35;;;;;;;4.81;100.00;100971.94;5071125;28;20058;-60
2023/01/14 05:52:27;;;;;;;26.23;4.20;;;;;;;4.80;100.00;100959.81;5073083;28;20051;-60
2023/01/14 05:54:55;;;;;;;26.23;3.60;;;;;;;4.86;100.00;100957.00;5073169;28;20518;-60
2023/01/14 05:57:23;;;;;;;19.95;3.30;;;;;;;4.87;100.00;100951.72;5072797;28;20048;-51
2023/01/14 05:59:53;;;;;;;19.98;3.20;;;;;;;4.85;100.00;100944.88;5070670;28;20539;-53
2023/01/14 06:07:54;;;;;;;19.00;3.03;;;;;;;4.88;100.00;100931.69;5072639;28;20048;-51
2023/01/14 06:10:24;;;;;;;17.23;2.78;;;;;;;4.91;100.00;100929.84;5072169;28;20044;-53
2023/01/14 06:12:59;;;;;;;19.35;2.80;;;;;;;4.96;100.00;100926.19;5072256;28;20399;-54
2023/01/14 06:15:35;;;;;;;18.95;2.55;;;;;;;4.93;100.00;100921.94;5072402;28;20078;-54
2023/01/14 06:18:13;;;;;;;19.15;3.15;;;;;;;4.93;100.00;100908.06;5072478;28;20215;-53
2023/01/14 06:20:42;;;;;;;18.52;2.97;;;;;;;4.97;100.00;100896.63;5072305;28;20045;-52
2023/01/14 06:23:13;;;;;;;20.73;3.10;;;;;;;4.99;100.00;100886.97;5072572;28;20041;-52
2023/01/14 06:25:45;;;;;;;19.27;3.13;;;;;;;5.06;100.00;100878.84;5072360;28;20499;-53
2023/01/14 06:28:13;;;;;;;17.93;3.37;;;;;;;5.07;100.00;100871.84;5072258;28;20045;-52
2023/01/14 06:30:43;;;;;;;20.98;2.97;;;;;;;5.01;100.00;100859.91;5072299;28;20090;-50
2023/01/14 06:33:12;;;;;;;26.52;3.60;;;;;;;5.01;100.00;100859.09;5072378;28;20450;-53
2023/01/14 06:35:44;;;;;;;16.60;2.95;;;;;;;5.03;100.00;100852.03;5072426;28;20044;-60
2023/01/14 06:38:13;;;;;;;15.98;3.45;;;;;;;5.02;100.00;100847.75;5072637;28;20434;-60
2023/01/14 06:40:42;;;;;;;17.17;3.30;;;;;;;5.02;100.00;100837.34;5072696;28;20503;-60
2023/01/14 06:43:11;;;;;;;23.10;3.70;;;;;;;5.05;100.00;100842.41;5072743;28;20048;-60
2023/01/14 06:45:39;;;;;;;17.05;3.47;;;;;;;5.07;100.00;100843.16;5072391;28;20051;-53
2023/01/14 06:48:08;;;;;;;20.13;3.83;;;;;;;5.15;100.00;100837.66;5075282;28;20482;-59
2023/01/14 06:50:37;;;;;;;16.73;3.30;;;;;;;5.16;100.00;100837.56;5076742;28;20044;-59
2023/01/14 06:53:05;;;;;;;15.75;3.33;;;;;;;5.15;100.00;100827.22;5076829;28;20059;-59
2023/01/14 06:55:33;;;;;;;19.15;3.80;;;;;;;5.23;100.00;100825.97;5076073;28;20120;-59
2023/01/14 06:58:01;;;;;;;21.25;3.88;;;;;;;5.20;100.00;100818.28;5074672;28;20083;-59
2023/01/14 07:00:29;;;;;;;19.80;2.58;;;;;;;5.25;100.00;100813.72;5075801;28;20053;-59
2023/01/14 07:02:58;;;;;;;20.92;3.22;;;;;;;5.22;100.00;100807.78;5076348;28;20527;-59
2023/01/14 07:05:27;;;;;;;21.33;2.92;;;;;;;5.25;100.00;100805.06;5073728;28;20044;-58
2023/01/14 07:07:55;;;;;;;20.55;2.78;;;;;;;5.30;100.00;100805.69;5073239;28;20040;-52
2023/01/14 07:10:24;;;;;;;18.55;2.80;;;;;;;5.29;100.00;100795.31;5075396;28;20048;-51
2023/01/14 07:12:52;;;;;;;27.05;3.15;;;;;;;5.30;100.00;100784.81;5075386;28;20044;-53
2023/01/14 07:15:21;;;;;;;16.23;2.42;;;;;;;5.29;100.00;100785.75;5073324;28;20059;-52
2023/01/14 07:17:50;;;;;;;20.38;2.85;;;;;;;5.34;100.00;100772.50;5072202;28;20556;-58
2023/01/14 07:20:18;;;;;;;17.30;3.38;;;;;;;5.35;100.00;100763.78;5075545;28;20055;-50
2023/01/14 07:22:53;;;;;;;13.73;3.30;;;;;;;5.31;100.00;100759.59;5108846;28;20101;-58
2023/01/14 07:25:21;;;;;;;18.73;2.60;;;;;;;5.26;100.00;100751.97;5075992;28;20052;-58
2023/01/14 07:27:52;;;;;;;14.75;3.03;;;;;;;5.27;100.00;100745.00;5076258;28;20090;-58
2023/01/14 07:30:20;;;;;;;16.15;3.30;;;;;;;5.27;100.00;100737.19;5076067;28;20119;-58
2023/01/14 07:32:48;;;;;;;24.88;3.53;;;;;;;5.19;100.00;100722.72;5076357;28;20052;-58
2023/01/14 07:35:17;;;;;;;20.98;3.75;;;;;;;5.17;100.00;100726.31;5076059;28;20052;-58
2023/01/14 07:37:45;;;;;;;16.08;2.78;;;;;;;5.19;100.00;100714.06;5072897;28;20045;-58
2023/01/14 07:40:15;;;;;;;18.83;3.40;;;;;;;5.15;100.00;100715.94;5073668;28;20408;-58
2023/01/14 07:42:43;;;;;;;16.80;2.72;;;;;;;5.10;100.00;100697.06;5074819;28;20068;-58
2023/01/14 07:45:11;;;;;;;18.40;3.10;;;;;;;5.15;100.00;100700.28;5075810;28;20037;-58
2023/01/14 07:47:39;;;;;;;15.82;2.70;;;;;;;5.13;100.00;100689.09;5074766;28;20165;-58
2023/01/14 07:50:09;;;;;;;20.88;3.58;;;;;;;5.14;100.00;100680.38;5073187;28;20090;-58
2023/01/14 07:52:37;;;;;;;16.63;3.17;;;;;;;5.17;100.00;100669.81;5074172;28;20036;-58
2023/01/14 07:55:06;;;;;;;17.65;3.50;;;;;;;5.18;100.00;100655.00;5075298;28;20055;-58
2023/01/14 07:57:36;;;;;;;17.15;2.95;;;;;;;5.17;100.00;100638.50;5074818;28;20056;-58
2023/01/14 08:00:06;;;;;;;17.25;2.83;;;;;;;5.13;100.00;100620.50;5070764;28;20049;-53
2023/01/14 08:02:36;;;;;;;18.77;2.90;;;;;;;5.16;100.00;100618.56;5072259;28;20048;-51
2023/01/14 08:05:05;;;;;;;21.10;3.35;;;;;;;5.20;100.00;100612.28;5071926;28;20503;-52
2023/01/14 08:07:33;;;;;;;17.90;3.90;;;;;;;5.23;100.00;100606.94;5071799;28;20068;-58
2023/01/14 08:10:01;;;;;;;18.98;3.50;;;;;;;5.22;100.00;100607.88;5074767;28;20082;-51
2023/01/14 08:12:31;;;;;;;17.92;3.00;;;;;;;5.23;100.00;100601.72;5075194;28;20044;-54
2023/01/14 08:15:02;;;;;;;19.38;3.25;;;;;;;5.25;100.00;100599.91;5074696;28;20052;-53
2023/01/14 08:17:30;;;;;;;22.08;2.88;;;;;;;5.20;100.00;100598.41;5075145;28;20052;-53
2023/01/14 08:19:59;;;;;;;16.33;2.90;;;;;;;5.23;100.00;100573.03;5074668;28;20040;-52
2023/01/14 08:22:29;;;;;;;17.83;3.28;;;;;;;5.25;100.00;100578.19;5074550;28;20063;-53
2023/01/14 08:24:57;;;;;;;19.55;3.25;;;;;;;5.24;100.00;100577.34;5074654;28;20049;-58
2023/01/14 08:27:27;;;;;;;21.35;3.58;;;;;;;5.28;100.00;100553.75;5074661;28;20470;-51
2023/01/14 08:29:55;;;;;;;15.38;3.30;;;;;;;5.33;100.00;100556.94;5073796;28;20529;-53
2023/01/14 08:32:25;;;;;;;18.85;3.22;;;;;;;5.32;100.00;100547.47;5068784;28;20144;-51
2023/01/14 08:34:53;;;;;;;15.88;3.90;;;;;;;5.34;100.00;100538.63;5070256;28;20049;-53
2023/01/14 08:37:21;;;;;;;19.30;3.60;;;;;;;5.35;100.00;100535.09;5073871;28;20431;-53
2023/01/14 08:39:49;;;;;;;17.65;3.85;;;;;;;5.35;100.00;100523.84;5070426;28;20559;-53
2023/01/14 08:42:18;;;;;;;13.30;3.15;;;;;;;5.35;100.00;100522.06;5072057;28;20052;-52
2023/01/14 08:44:46;;;;;;;15.18;4.07;;;;;;;5.41;100.00;100510.47;5073642;28;20419;-52
2023/01/14 08:47:15;;;;;;;15.05;4.30;;;;;;;5.46;100.00;100492.00;5073590;28;20403;-52
2023/01/14 08:49:44;;;;;;;16.40;3.88;;;;;;;5.48;100.00;100498.00;5073967;28;20413;-51
2023/01/14 08:52:12;;;;;;;17.67;3.67;;;;;;;5.48;100.00;100477.13;5073115;28;20052;-58
2023/01/14 08:54:41;;;;;;;15.10;3.20;;;;;;;5.51;100.00;100469.16;5071466;28;20580;-58
2023/01/14 08:57:09;;;;;;;13.57;3.63;;;;;;;5.51;100.00;100463.94;5073175;28;20105;-58
2023/01/14 08:59:38;;;;;;;17.48;3.67;;;;;;;5.53;100.00;100451.66;5073954;28;20052;-59
2023/01/14 09:02:07;;;;;;;14.93;3.60;;;;;;;5.55;100.00;100450.66;5074059;28;20045;-58
2023/01/14 09:04:35;;;;;;;14.23;2.95;;;;;;;5.60;100.00;100432.16;5073908;28;20048;-58
2023/01/14 09:18:10;;;;;;;11.07;3.33;;;;;;;5.77;100.00;100373.91;5070215;28;20052;-58
2023/01/14 09:20:42;;;;;;;12.40;3.70;;;;;;;5.84;100.00;100379.63;5072682;28;20053;-58
2023/01/14 09:23:11;;;;;;;12.95;3.92;;;;;;;5.84;100.00;100377.84;5073664;28;20094;-58
2023/01/14 09:25:40;;;;;;;10.70;3.00;;;;;;;5.87;100.00;100369.84;5073507;28;20392;-58
2023/01/14 09:28:08;;;;;;;9.43;3.08;;;;;;;5.86;100.00;100364.72;5072479;28;20048;-58
2023/01/14 09:30:36;;;;;;;12.20;3.05;;;;;;;5.87;100.00;100361.19;5069164;28;20063;-58
2023/01/14 09:33:06;;;;;;;10.60;3.42;;;;;;;5.89;100.00;100357.59;5072209;28;20084;-58
2023/01/14 09:35:34;;;;;;;10.38;3.17;;;;;;;5.95;100.00;100360.81;5071878;28;20056;-52
2023/01/14 09:38:02;;;;;;;10.50;2.78;;;;;;;5.98;100.00;100358.88;5073117;28;20044;-53
2023/01/14 09:40:32;;;;;;;11.27;3.10;;;;;;;6.02;100.00;100349.13;5070662;28;20538;-52
2023/01/14 09:43:00;;;;;;;10.15;2.83;;;;;;;6.02;100.00;100360.41;5068745;28;20040;-52
2023/01/14 09:45:31;;;;;;;11.10;3.55;;;;;;;6.08;100.00;100348.78;5071743;28;20048;-52
2023/01/14 09:48:05;;;;;;;9.20;2.80;;;;;;;6.08;100.00;100347.03;5072200;28;20053;-53
2023/01/14 09:50:44;;;;;;;11.23;3.17;;;;;;;6.15;100.00;100344.94;5072634;28;20119;-52
2023/01/14 09:53:38;;;;;;;8.45;2.30;;;;;;;6.23;100.00;100319.25;5072373;28;20127;-52
2023/01/14 09:56:13;;;;;;;10.95;2.78;;;;;;;6.24;100.00;100323.53;5072703;28;20063;-52
2023/01/14 09:58:52;;;;;;;8.70;2.35;;;;;;;6.31;100.00;100304.91;5072791;28;20476;-53
2023/01/14 10:01:29;;;;;;;9.00;2.53;;;;;;;6.34;100.00;100292.53;5071146;28;20076;-53
2023/01/14 10:04:10;;;;;;;10.07;2.70;;;;;;;6.40;100.00;100289.56;5068600;28;20055;-53
2023/01/14 10:06:41;;;;;;;5.10;1.65;;;;;;;6.43;100.00;100275.47;5071935;28;20035;-59
2023/01/14 10:09:15;;;;;;;6.28;1.63;;;;;;;6.50;100.00;100265.53;5072907;28;20041;-58
2023/01/14 10:11:47;;;;;;;6.93;1.95;;;;;;;6.48;100.00;100256.94;5072776;28;20044;-58
2023/01/14 10:14:20;;;;;;;9.00;1.85;;;;;;;6.49;100.00;100248.16;5071378;28;20052;-59
2023/01/14 10:16:52;;;;;;;9.52;2.05;;;;;;;6.53;100.00;100250.53;5068559;28;20045;-58
2023/01/14 10:19:26;;;;;;;10.65;1.95;;;;;;;6.54;100.00;100238.28;5072732;28;20147;-59
2023/01/14 10:22:04;;;;;;;8.13;1.80;;;;;;;6.57;100.00;100231.13;5071940;28;20044;-58
2023/01/14 10:24:33;;;;;;;7.93;2.10;;;;;;;6.53;100.00;100203.50;5072327;28;20407;-58
2023/01/14 10:27:14;;;;;;;6.82;2.05;;;;;;;6.56;100.00;100194.66;5072464;28;20484;-58
2023/01/14 10:29:42;;;;;;;7.15;2.05;;;;;;;6.58;100.00;100175.31;5072527;28;20048;-58
2023/01/14 10:32:15;;;;;;;9.15;2.10;;;;;;;6.58;100.00;100159.63;5072584;28;20040;-59
2023/01/14 10:34:48;;;;;;;10.40;2.33;;;;;;;6.60;100.00;100152.56;5070851;28;20043;-58
2023/01/14 10:37:16;;;;;;;;;;;;;;;6.60;100.00;100151.72;5069568;28;20143;-59
2023/01/14 10:39:50;;;;;;;8.75;1.90;;;;;;;6.67;100.00;100152.19;5071775;28;19924;-58
2023/01/14 10:42:24;;;;;;;8.77;2.15;;;;;;;6.63;100.00;100145.47;5072463;28;20040;-52
2023/01/14 10:44:54;;;;;;;6.97;1.98;;;;;;;6.68;100.00;100119.88;5072385;28;20052;-52
2023/01/14 10:47:25;;;;;;;8.68;2.03;;;;;;;6.66;100.00;100117.38;5070996;28;20049;-52
2023/01/14 10:49:56;;;;;;;7.65;1.95;;;;;;;6.72;100.00;100113.53;5072316;28;20048;-50
2023/01/14 10:52:26;;;;;;;10.35;2.20;;;;;;;6.73;100.00;100110.84;5072175;28;20074;-52
2023/01/14 10:55:00;;;;;;;10.63;2.40;;;;;;;6.77;100.00;100106.28;5068636;28;20094;-52
2023/01/14 10:57:34;;;;;;;8.68;2.13;;;;;;;6.84;100.00;100084.03;5069886;28;20045;-52
2023/01/14 11:00:04;;;;;;;6.70;1.67;;;;;;;6.90;100.00;100073.22;5072138;28;20052;-53
2023/01/14 11:02:37;;;;;;;7.35;1.90;;;;;;;6.92;100.00;100058.25;5072159;28;20497;-53
2023/01/14 11:05:08;;;;;;;5.22;1.58;;;;;;;6.97;100.00;100050.16;5072229;28;20045;-53
2023/01/14 11:07:41;;;;;;;6.32;1.90;;;;;;;6.97;100.00;100031.84;5068720;28;20048;-53
2023/01/14 11:10:20;;;;;;;3.53;1.60;;;;;;;7.04;100.00;100020.06;5070379;28;20128;-53
2023/01/14 11:12:51;;;;;;;5.13;1.50;;;;;;;7.09;100.00;100015.38;5072024;28;20558;-52
2023/01/14 11:15:37;;;;;;;5.70;2.17;;;;;;;7.15;100.00;100000.25;5071929;28;20210;-53
2023/01/14 11:18:28;;;;;;;8.15;1.60;;;;;;;7.13;100.00;99987.28;5066215;28;20040;-53
2023/01/14 11:21:12;;;;;;;6.18;1.58;;;;;;;7.19;100.00;99980.81;5070129;28;20546;-52
2023/01/14 11:23:43;;;;;;;4.82;1.60;;;;;;;7.25;100.00;99970.78;5071512;28;20480;-51
2023/01/14 11:26:21;;;;;;;4.05;1.60;;;;;;;7.28;100.00;99969.75;5071806;28;20428;-53
2023/01/14 11:28:53;;;;;;;4.70;1.60;;;;;;;7.32;100.00;99954.69;5072053;28;20047;-59
2023/01/14 11:31:29;;;;;;;7.10;1.40;;;;;;;7.33;100.00;99949.34;5072059;28;20077;-59
2023/01/14 11:33:59;;;;;;;7.90;1.70;;;;;;;7.28;100.00;99944.44;5073235;28;20060;-59
2023/01/14 11:36:31;;;;;;;5.60;1.77;;;;;;;7.35;100.00;99933.53;5072231;28;20048;-52
2023/01/14 11:39:02;;;;;;;6.65;1.70;;;;;;;7.36;100.00;99924.75;5073101;28;20491;-53
2023/01/14 11:41:39;;;;;;;5.63;1.75;;;;;;;7.36;100.00;99909.06;5074106;28;20053;-54
2023/01/14 11:44:22;;;;;;;6.90;2.20;;;;;;;7.40;100.00;99905.31;5075594;28;20098;-53
2023/01/14 11:47:14;;;;;;;7.70;1.67;;;;;;;7.49;100.00;99909.09;5075723;28;20070;-59
2023/01/14 11:49:42;;;;;;;3.40;1.30;;;;;;;7.50;100.00;99898.53;5075533;28;20045;-59
2023/01/14 11:52:19;;;;;;;7.32;1.48;;;;;;;7.54;100.00;99902.63;5075515;28;20045;-60
2023/01/14 11:54:50;;;;;;;4.70;1.40;;;;;;;7.61;100.00;99888.16;5075387;28;20056;-54
2023/01/14 11:57:21;;;;;;;4.57;1.50;;;;;;;7.63;100.00;99882.00;5074620;28;20044;-52
2023/01/14 11:59:52;;;;;;;3.88;1.20;;;;;;;7.67;100.00;99871.19;5074717;28;20049;-53
2023/01/14 12:02:27;;;;;;;4.85;1.30;;;;;;;7.73;100.00;99849.84;5074427;28;20410;-53
2023/01/14 12:05:00;;;;;;;5.82;1.38;;;;;;;7.76;100.00;99856.66;5075016;28;20094;-52
2023/01/14 12:07:33;;;;;;;5.10;1.10;;;;;;;7.78;100.00;99841.69;5072082;28;20456;-52
2023/01/14 12:10:05;;;;;;;5.85;1.20;;;;;;;7.81;100.00;99830.97;5071607;28;20052;-53